createdAt,value
2023-10-23T00:01:55.654Z,99.90
2023-10-23T00:04:19.888Z,99.90
2023-10-23T00:06:43.893Z,99.90
2023-10-23T00:09:07.848Z,99.90
2023-10-23T00:11:33.704Z,99.90
2023-10-23T00:13:58.241Z,99.90
2023-10-23T00:16:22.499Z,99.90
2023-10-23T00:18:46.605Z,99.90
2023-10-23T00:21:10.793Z,99.90
2023-10-23T00:23:34.581Z,99.90
2023-10-23T00:25:58.449Z,99.90
2023-10-23T00:28:23.545Z,99.90
2023-10-23T00:30:47.388Z,99.90
2023-10-23T00:33:11.248Z,99.90
2023-10-23T00:35:35.979Z,99.90
2023-10-23T00:37:59.783Z,99.90
2023-10-23T00:40:24.272Z,99.90
2023-10-23T00:42:48.165Z,99.90
2023-10-23T00:45:13.509Z,99.90
2023-10-23T00:47:38.205Z,99.90
2023-10-23T00:50:02.198Z,99.90
2023-10-23T00:52:26.325Z,99.90
2023-10-23T00:54:50.391Z,99.90
2023-10-23T00:57:14.557Z,99.90
2023-10-23T00:59:38.469Z,99.90
2023-10-23T01:02:04.721Z,99.90
2023-10-23T01:04:29.380Z,99.90
2023-10-23T01:06:53.322Z,99.90
2023-10-23T01:09:17.265Z,99.90
2023-10-23T01:11:41.069Z,99.90
2023-10-23T01:14:04.952Z,99.90
2023-10-23T01:16:28.910Z,99.90
2023-10-23T01:18:54.397Z,99.90
2023-10-23T01:21:18.246Z,99.90
2023-10-23T01:23:46.519Z,99.90
2023-10-23T01:26:11.703Z,99.90
2023-10-23T01:28:35.588Z,99.90
2023-10-23T01:30:59.784Z,99.90
2023-10-23T01:33:23.788Z,99.90
2023-10-23T01:35:47.767Z,99.90
2023-10-23T01:38:12.233Z,99.90
2023-10-23T01:40:36.124Z,99.90
2023-10-23T01:43:01.543Z,99.90
2023-10-23T01:45:25.574Z,99.90
2023-10-23T01:47:49.511Z,99.90
2023-10-23T01:50:13.517Z,99.90
2023-10-23T01:52:37.380Z,99.90
2023-10-23T01:55:01.177Z,99.90
2023-10-23T01:57:25.507Z,99.90
2023-10-23T01:59:50.887Z,99.90
2023-10-23T02:02:14.860Z,99.90
2023-10-23T02:04:40.707Z,99.90
2023-10-23T02:07:05.125Z,99.90
2023-10-23T02:09:30.024Z,99.90
2023-10-23T02:11:53.799Z,99.90
2023-10-23T02:14:17.572Z,99.90
2023-10-23T02:16:41.952Z,99.90
2023-10-23T02:19:06.239Z,99.90
2023-10-23T02:21:30.219Z,99.90
2023-10-23T02:23:57.056Z,99.90
2023-10-23T02:26:21.656Z,99.90
2023-10-23T02:28:45.497Z,99.90
2023-10-23T02:31:10.409Z,99.90
2023-10-23T02:33:37.546Z,99.90
2023-10-23T02:36:01.332Z,99.90
2023-10-23T02:38:25.238Z,99.90
2023-10-23T02:40:53.837Z,99.90
2023-10-23T02:43:18.172Z,99.90
2023-10-23T02:45:42.014Z,99.90
2023-10-23T02:48:06.204Z,99.90
2023-10-23T02:50:31.411Z,99.90
2023-10-23T02:52:55.226Z,99.90
2023-10-23T02:55:19.218Z,99.90
2023-10-23T02:57:43.341Z,99.90
2023-10-23T03:00:08.787Z,99.90
2023-10-23T03:02:32.794Z,99.90
2023-10-23T03:04:56.898Z,99.90
2023-10-23T03:07:22.310Z,99.90
2023-10-23T03:09:46.218Z,99.90
2023-10-23T03:12:10.193Z,99.90
2023-10-23T03:14:34.451Z,99.90
2023-10-23T03:16:58.708Z,99.90
2023-10-23T03:19:25.581Z,99.90
2023-10-23T03:21:49.542Z,99.90
2023-10-23T03:24:14.925Z,99.90
2023-10-23T03:26:38.781Z,99.90
2023-10-23T03:29:05.286Z,99.90
2023-10-23T03:31:29.323Z,99.90
2023-10-23T03:33:53.557Z,99.90
2023-10-23T03:36:18.302Z,99.90
2023-10-23T03:38:44.076Z,99.90
2023-10-23T03:41:09.392Z,99.90
2023-10-23T03:43:33.721Z,99.90
2023-10-23T03:45:58.138Z,99.90
2023-10-23T03:48:22.300Z,99.90
2023-10-23T03:50:46.368Z,99.90
2023-10-23T03:53:10.211Z,99.90
2023-10-23T03:55:38.486Z,99.90
2023-10-23T03:58:03.668Z,99.90
2023-10-23T04:00:27.667Z,99.90
2023-10-23T04:02:53.467Z,99.90
2023-10-23T04:05:17.514Z,99.90
2023-10-23T04:07:41.361Z,99.90
2023-10-23T04:10:08.651Z,99.90
2023-10-23T04:12:32.535Z,99.90
2023-10-23T04:14:58.209Z,99.90
2023-10-23T04:17:22.395Z,99.90
2023-10-23T04:19:49.598Z,99.90
2023-10-23T04:22:13.472Z,99.90
2023-10-23T04:24:37.450Z,99.90
2023-10-23T04:27:01.279Z,99.90
2023-10-23T04:29:25.241Z,99.90
2023-10-23T04:31:50.488Z,99.90
2023-10-23T04:34:15.851Z,99.90
2023-10-23T04:36:39.719Z,99.90
2023-10-23T04:39:03.636Z,99.90
2023-10-23T04:41:27.512Z,99.90
2023-10-23T04:43:51.506Z,99.90
2023-10-23T04:46:15.430Z,99.90
2023-10-23T04:48:40.741Z,99.90
2023-10-23T04:51:04.632Z,99.90
2023-10-23T04:53:28.601Z,99.90
2023-10-23T04:55:52.676Z,99.90
2023-10-23T04:58:16.640Z,99.90
2023-10-23T05:00:40.906Z,99.90
2023-10-23T05:03:05.732Z,99.90
2023-10-23T05:05:30.998Z,99.90
2023-10-23T05:07:54.786Z,99.90
2023-10-23T05:10:19.533Z,99.90
2023-10-23T05:12:46.284Z,99.90
2023-10-23T05:15:10.977Z,99.90
2023-10-23T05:17:35.085Z,99.90
2023-10-23T05:19:59.131Z,99.90
2023-10-23T05:22:24.542Z,99.90
2023-10-23T05:24:48.650Z,99.90
2023-10-23T05:27:12.938Z,99.90
2023-10-23T05:29:36.930Z,99.90
2023-10-23T05:32:01.075Z,99.90
2023-10-23T05:34:24.991Z,99.90
2023-10-23T05:36:49.448Z,99.90
2023-10-23T05:39:14.858Z,99.90
2023-10-23T05:41:38.971Z,99.90
2023-10-23T05:44:05.799Z,99.90
2023-10-23T05:46:31.574Z,99.90
2023-10-23T05:48:55.877Z,99.90
2023-10-23T05:51:20.027Z,99.90
2023-10-23T05:53:43.962Z,99.90
2023-10-23T05:56:09.571Z,99.90
2023-10-23T05:58:38.321Z,99.90
2023-10-23T06:01:06.910Z,99.90
2023-10-23T06:03:30.998Z,99.90
2023-10-23T06:05:55.150Z,99.90
2023-10-23T06:08:19.119Z,99.90
2023-10-23T06:10:43.717Z,99.90
2023-10-23T06:13:09.140Z,99.90
2023-10-23T06:15:34.856Z,99.90
2023-10-23T06:17:58.792Z,99.80
2023-10-23T06:20:22.678Z,99.70
2023-10-23T06:22:46.747Z,99.30
2023-10-23T06:25:10.907Z,98.80
2023-10-23T06:27:35.045Z,98.20
2023-10-23T06:30:00.393Z,97.90
2023-10-23T06:32:26.611Z,97.20
2023-10-23T06:34:53.084Z,96.60
2023-10-23T06:37:18.315Z,96.20
2023-10-23T06:39:42.450Z,95.60
2023-10-23T06:42:06.844Z,95.10
2023-10-23T06:44:31.321Z,95.10
2023-10-23T06:46:56.663Z,94.90
2023-10-23T06:49:20.566Z,94.70
2023-10-23T06:51:44.504Z,93.70
2023-10-23T06:54:08.620Z,93.00
2023-10-23T06:56:32.647Z,92.50
2023-10-23T06:58:56.514Z,92.50
2023-10-23T07:01:33.654Z,92.20
2023-10-23T07:04:06.821Z,91.90
2023-10-23T07:06:30.958Z,90.80
2023-10-23T07:09:03.948Z,90.70
2023-10-23T07:11:31.520Z,90.10
2023-10-23T07:14:03.748Z,89.20
2023-10-23T07:16:28.528Z,87.80
2023-10-23T07:18:52.748Z,86.90
2023-10-23T07:21:18.173Z,85.80
2023-10-23T07:23:42.134Z,84.60
2023-10-23T07:26:09.369Z,83.10
2023-10-23T07:28:33.297Z,82.20
2023-10-23T07:30:57.210Z,82.00
2023-10-23T07:33:21.112Z,81.50
2023-10-23T07:35:53.495Z,81.20
2023-10-23T07:38:19.779Z,81.20
2023-10-23T07:40:45.323Z,80.60
2023-10-23T07:43:09.357Z,79.10
2023-10-23T07:45:33.206Z,78.70
2023-10-23T07:47:58.898Z,77.90
2023-10-23T07:50:25.803Z,76.80
2023-10-23T07:52:50.466Z,76.00
2023-10-23T07:55:15.896Z,75.80
2023-10-23T07:57:39.831Z,75.40
2023-10-23T08:00:07.303Z,75.50
2023-10-23T08:02:31.404Z,74.80
2023-10-23T08:04:56.453Z,73.90
2023-10-23T08:07:20.495Z,72.20
2023-10-23T08:09:44.651Z,70.70
2023-10-23T08:12:13.690Z,69.10
2023-10-23T08:14:38.415Z,68.50
2023-10-23T08:17:02.507Z,69.00
2023-10-23T08:19:26.638Z,68.80
2023-10-23T08:21:50.892Z,68.60
2023-10-23T08:24:15.271Z,67.80
2023-10-23T08:26:39.439Z,67.60
2023-10-23T08:29:06.131Z,66.20
2023-10-23T08:31:39.493Z,66.80
2023-10-23T08:34:04.923Z,67.00
2023-10-23T08:36:28.888Z,66.80
2023-10-23T08:38:52.855Z,66.60
2023-10-23T08:41:16.891Z,67.00
2023-10-23T08:43:41.725Z,67.30
2023-10-23T08:46:09.346Z,67.20
2023-10-23T08:48:33.535Z,67.60
2023-10-23T08:50:59.048Z,68.20
2023-10-23T08:53:25.481Z,68.10
2023-10-23T08:55:52.256Z,68.20
2023-10-23T08:58:17.097Z,68.20
2023-10-23T09:00:41.021Z,69.30
2023-10-23T09:03:07.723Z,70.00
2023-10-23T09:05:31.711Z,70.10
2023-10-23T09:07:56.011Z,70.10
2023-10-23T09:10:19.975Z,69.60
2023-10-23T09:12:44.914Z,69.80
2023-10-23T09:15:18.440Z,69.70
2023-10-23T09:17:41.554Z,69.50
2023-10-23T09:20:26.535Z,69.30
2023-10-23T09:22:53.668Z,70.00
2023-10-23T09:25:18.106Z,70.40
2023-10-23T09:27:42.303Z,70.00
2023-10-23T09:30:07.509Z,69.40
2023-10-23T09:32:32.570Z,69.50
2023-10-23T09:34:57.606Z,69.40
2023-10-23T09:37:23.097Z,69.40
2023-10-23T09:39:47.762Z,70.00
2023-10-23T09:42:13.111Z,68.70
2023-10-23T09:44:38.846Z,68.90
2023-10-23T09:47:04.260Z,67.60
2023-10-23T09:49:29.386Z,68.10
2023-10-23T09:51:56.192Z,67.70
2023-10-23T09:54:22.186Z,67.10
2023-10-23T09:56:50.811Z,67.20
2023-10-23T09:59:18.565Z,67.30
2023-10-23T10:01:44.068Z,67.60
2023-10-23T10:04:15.101Z,67.60
2023-10-23T10:06:44.074Z,69.30
2023-10-23T10:09:13.518Z,69.50
2023-10-23T10:11:39.909Z,68.90
2023-10-23T10:14:05.451Z,69.40
2023-10-23T10:16:29.665Z,70.80
2023-10-23T10:18:56.323Z,69.90
2023-10-23T10:21:24.945Z,71.10
2023-10-23T10:23:49.168Z,72.70
2023-10-23T10:26:13.173Z,72.70
2023-10-23T10:28:42.178Z,70.50
2023-10-23T10:31:06.222Z,71.60
2023-10-23T10:34:19.598Z,72.50
2023-10-23T10:36:46.069Z,73.10
2023-10-23T10:39:06.745Z,73.20
2023-10-23T10:41:30.653Z,73.80
2023-10-23T10:43:55.998Z,74.20
2023-10-23T10:46:22.630Z,75.40
2023-10-23T10:48:48.343Z,74.20
2023-10-23T10:51:14.155Z,74.10
2023-10-23T10:53:41.588Z,73.80
2023-10-23T10:56:09.352Z,74.10
2023-10-23T10:58:33.353Z,73.80
2023-10-23T11:01:01.195Z,74.10
2023-10-23T11:03:25.933Z,73.70
2023-10-23T11:05:49.939Z,72.80
2023-10-23T11:08:14.054Z,72.70
2023-10-23T11:10:37.796Z,72.20
2023-10-23T11:13:02.674Z,72.20
2023-10-23T11:15:27.199Z,71.80
2023-10-23T11:17:53.236Z,72.00
2023-10-23T11:20:18.042Z,73.50
2023-10-23T11:22:43.958Z,74.00
2023-10-23T11:25:10.353Z,73.90
2023-10-23T11:27:34.499Z,74.10
2023-10-23T11:29:58.373Z,74.20
2023-10-23T11:32:22.902Z,73.30
2023-10-23T11:34:48.941Z,72.50
2023-10-23T11:37:14.190Z,73.60
2023-10-23T11:39:40.059Z,72.00
2023-10-23T11:42:04.912Z,72.80
2023-10-23T11:44:29.626Z,74.40
2023-10-23T11:46:55.509Z,72.40
2023-10-23T11:49:22.034Z,72.50
2023-10-23T11:51:49.824Z,71.50
2023-10-23T11:54:14.675Z,72.30
2023-10-23T11:56:39.320Z,71.70
2023-10-23T11:59:03.824Z,71.60
2023-10-23T12:01:31.219Z,71.20
2023-10-23T12:03:58.497Z,71.40
2023-10-23T12:06:22.857Z,71.80
2023-10-23T12:08:48.452Z,71.30
2023-10-23T12:11:12.657Z,71.30
2023-10-23T12:13:38.686Z,71.00
2023-10-23T12:16:02.930Z,71.40
2023-10-23T12:18:27.721Z,71.30
2023-10-23T12:20:53.026Z,71.20
2023-10-23T12:23:17.201Z,71.70
2023-10-23T12:25:43.688Z,71.90
2023-10-23T12:28:07.695Z,71.50
2023-10-23T12:30:31.640Z,71.70
2023-10-23T12:33:13.889Z,72.00
2023-10-23T12:35:40.164Z,72.20
2023-10-23T12:38:04.581Z,72.20
2023-10-23T12:40:31.612Z,72.30
2023-10-23T12:42:59.550Z,72.50
2023-10-23T12:45:23.773Z,72.40
2023-10-23T12:47:47.986Z,72.70
2023-10-23T12:50:12.591Z,73.00
2023-10-23T12:52:37.158Z,73.10
2023-10-23T12:55:01.173Z,73.20
2023-10-23T12:57:25.248Z,73.20
2023-10-23T12:59:50.825Z,73.40
2023-10-23T13:02:14.866Z,74.00
2023-10-23T13:04:39.103Z,74.30
2023-10-23T13:07:03.490Z,74.30
2023-10-23T13:09:27.645Z,74.70
2023-10-23T13:12:00.936Z,74.60
2023-10-23T13:14:25.236Z,74.80
2023-10-23T13:16:50.934Z,74.90
2023-10-23T13:19:17.010Z,75.00
2023-10-23T13:21:41.054Z,75.10
2023-10-23T13:24:06.331Z,75.30
2023-10-23T13:26:33.820Z,75.40
2023-10-23T13:28:58.104Z,75.40
2023-10-23T13:31:22.488Z,75.50
2023-10-23T13:33:48.465Z,75.70
2023-10-23T13:36:12.904Z,75.60
2023-10-23T13:38:37.377Z,76.10
2023-10-23T13:41:03.578Z,76.10
2023-10-23T13:43:30.066Z,76.30
2023-10-23T13:45:54.118Z,76.60
2023-10-23T13:48:18.657Z,76.50
2023-10-23T13:50:50.256Z,76.40
2023-10-23T13:53:14.508Z,76.40
2023-10-23T13:55:39.113Z,76.70
2023-10-23T13:58:04.367Z,76.60
2023-10-23T14:00:28.283Z,76.80
2023-10-23T14:02:52.465Z,77.30
2023-10-23T14:05:17.213Z,77.00
2023-10-23T14:07:43.200Z,77.10
2023-10-23T14:10:11.240Z,77.00
2023-10-23T14:12:48.048Z,77.20
2023-10-23T14:15:13.030Z,77.30
2023-10-23T14:17:37.854Z,77.50
2023-10-23T14:20:01.811Z,77.60
2023-10-23T14:22:25.835Z,77.50
2023-10-23T14:24:51.134Z,78.20
2023-10-23T14:27:15.180Z,78.50
2023-10-23T14:29:39.346Z,78.80
2023-10-23T14:32:03.525Z,78.20
2023-10-23T14:34:28.533Z,77.90
2023-10-23T14:36:52.601Z,77.90
2023-10-23T14:39:16.586Z,78.10
2023-10-23T14:41:41.915Z,78.30
2023-10-23T14:44:06.390Z,78.40
2023-10-23T14:46:30.389Z,78.30
2023-10-23T14:48:54.788Z,78.30
2023-10-23T14:51:18.824Z,78.40
2023-10-23T14:53:45.480Z,78.50
2023-10-23T14:56:12.685Z,78.50
2023-10-23T14:58:38.244Z,78.60
2023-10-23T15:01:02.131Z,78.90
2023-10-23T15:03:26.617Z,78.80
2023-10-23T15:05:50.577Z,78.70
2023-10-23T15:08:14.502Z,78.80
2023-10-23T15:10:39.523Z,79.80
2023-10-23T15:13:03.572Z,79.30
2023-10-23T15:15:33.050Z,79.40
2023-10-23T15:17:56.999Z,79.20
2023-10-23T15:20:21.290Z,79.20
2023-10-23T15:22:45.172Z,79.50
2023-10-23T15:25:11.042Z,79.40
2023-10-23T15:27:36.771Z,79.40
2023-10-23T15:30:32.628Z,79.70
2023-10-23T15:33:00.596Z,80.70
2023-10-23T15:35:24.614Z,81.30
2023-10-23T15:37:48.937Z,82.40
2023-10-23T15:40:14.316Z,83.80
2023-10-23T15:42:38.294Z,86.40
2023-10-23T15:45:02.412Z,86.60
2023-10-23T15:47:26.559Z,86.40
2023-10-23T15:49:51.816Z,87.70
2023-10-23T15:52:15.677Z,86.60
2023-10-23T15:54:40.108Z,88.60
2023-10-23T15:57:04.783Z,89.80
2023-10-23T15:59:30.149Z,89.80
2023-10-23T16:01:54.392Z,90.50
2023-10-23T16:04:18.647Z,90.70
2023-10-23T16:06:45.534Z,91.40
2023-10-23T16:09:22.099Z,92.00
2023-10-23T16:11:51.786Z,92.00
2023-10-23T16:14:15.901Z,92.10
2023-10-23T16:16:40.823Z,92.30
2023-10-23T16:19:06.944Z,92.50
2023-10-23T16:21:31.071Z,92.60
2023-10-23T16:23:56.263Z,92.70
2023-10-23T16:26:20.225Z,92.80
2023-10-23T16:28:44.011Z,92.80
2023-10-23T16:31:09.711Z,92.50
2023-10-23T16:33:34.388Z,92.50
2023-10-23T16:35:58.330Z,92.80
2023-10-23T16:38:22.221Z,92.60
2023-10-23T16:40:47.454Z,92.00
2023-10-23T16:43:14.463Z,91.90
2023-10-23T16:45:38.586Z,93.10
2023-10-23T16:48:04.253Z,93.40
2023-10-23T16:50:28.759Z,93.70
2023-10-23T16:52:52.729Z,93.50
2023-10-23T16:55:17.328Z,93.60
2023-10-23T16:57:43.119Z,93.70
2023-10-23T17:00:10.979Z,93.60
2023-10-23T17:02:38.619Z,93.50
2023-10-23T17:05:04.507Z,92.90
2023-10-23T17:07:31.320Z,93.50
2023-10-23T17:09:55.675Z,93.80
2023-10-23T17:12:19.584Z,93.70
2023-10-23T17:14:44.888Z,93.50
2023-10-23T17:17:08.897Z,94.10
2023-10-23T17:19:32.796Z,94.40
2023-10-23T17:21:59.550Z,94.50
2023-10-23T17:24:23.449Z,94.80
2023-10-23T17:26:54.464Z,95.30
2023-10-23T17:29:22.061Z,95.60
2023-10-23T17:31:47.967Z,95.90
2023-10-23T17:34:13.935Z,96.20
2023-10-23T17:36:37.936Z,96.40
2023-10-23T17:39:05.832Z,96.60
2023-10-23T17:41:29.758Z,96.70
2023-10-23T17:43:54.343Z,96.70
2023-10-23T17:46:21.910Z,97.00
2023-10-23T17:48:48.250Z,97.00
2023-10-23T17:51:16.707Z,97.30
2023-10-23T17:53:53.714Z,96.90
2023-10-23T17:56:26.751Z,96.70
2023-10-23T17:58:55.595Z,96.90
2023-10-23T18:01:19.640Z,97.20
2023-10-23T18:03:49.823Z,97.20
2023-10-23T18:06:13.781Z,97.20
2023-10-23T18:08:37.764Z,97.50
2023-10-23T18:11:01.679Z,97.30
2023-10-23T18:13:26.888Z,96.90
2023-10-23T18:15:50.790Z,97.60
2023-10-23T18:18:16.289Z,98.00
2023-10-23T18:20:44.669Z,98.10
2023-10-23T18:23:10.649Z,98.30
2023-10-23T18:25:37.831Z,98.30
2023-10-23T18:28:01.883Z,98.40
2023-10-23T18:30:27.438Z,98.30
2023-10-23T18:32:54.412Z,98.50
2023-10-23T18:35:18.473Z,98.70
2023-10-23T18:37:46.551Z,98.60
2023-10-23T18:40:11.245Z,98.60
2023-10-23T18:42:35.809Z,98.50
2023-10-23T18:45:00.988Z,98.30
2023-10-23T18:47:24.991Z,98.20
2023-10-23T18:49:52.469Z,98.00
2023-10-23T18:52:17.503Z,97.80
2023-10-23T18:54:46.007Z,97.80
2023-10-23T18:57:13.833Z,97.70
2023-10-23T18:59:38.126Z,97.70
2023-10-23T19:02:05.110Z,97.70
2023-10-23T19:04:29.140Z,98.20
2023-10-23T19:06:53.948Z,98.80
2023-10-23T19:09:17.850Z,98.90
2023-10-23T19:11:43.077Z,99.00
2023-10-23T19:14:07.076Z,99.00
2023-10-23T19:16:31.141Z,99.00
2023-10-23T19:18:55.069Z,98.80
2023-10-23T19:21:18.975Z,98.60
2023-10-23T19:23:43.672Z,98.80
2023-10-23T19:26:10.796Z,99.10
2023-10-23T19:28:36.572Z,98.90
2023-10-23T19:31:01.370Z,98.80
2023-10-23T19:33:25.821Z,98.80
2023-10-23T19:35:50.583Z,99.00
2023-10-23T19:38:14.914Z,99.20
2023-10-23T19:40:40.033Z,99.50
2023-10-23T19:43:14.461Z,99.30
2023-10-23T19:45:40.474Z,99.50
2023-10-23T19:48:05.134Z,99.30
2023-10-23T19:50:29.819Z,99.50
2023-10-23T19:52:54.628Z,99.60
2023-10-23T19:55:43.559Z,99.60
2023-10-23T19:58:05.549Z,99.10
2023-10-23T20:00:29.358Z,99.20
2023-10-23T20:02:55.925Z,99.20
2023-10-23T20:05:20.131Z,99.00
2023-10-23T20:07:44.084Z,99.10
2023-10-23T20:10:09.733Z,99.20
2023-10-23T20:12:34.926Z,99.60
2023-10-23T20:15:01.316Z,99.50
2023-10-23T20:17:25.398Z,99.30
2023-10-23T20:19:50.866Z,99.60
2023-10-23T20:22:14.764Z,99.70
2023-10-23T20:24:42.379Z,99.90
2023-10-23T20:27:07.724Z,99.90
2023-10-23T20:29:31.692Z,99.90
2023-10-23T20:31:55.663Z,99.90
2023-10-23T20:34:19.674Z,99.90
2023-10-23T20:36:45.017Z,99.90
2023-10-23T20:39:11.288Z,99.90
2023-10-23T20:41:35.282Z,99.90
2023-10-23T20:43:59.062Z,99.90
2023-10-23T20:46:23.073Z,99.90
2023-10-23T20:48:47.489Z,99.90
2023-10-23T20:51:11.946Z,99.90
2023-10-23T20:53:37.383Z,99.90
2023-10-23T20:56:04.533Z,99.90
2023-10-23T20:58:28.417Z,99.90
2023-10-23T21:00:52.242Z,99.90
2023-10-23T21:03:16.313Z,99.90
2023-10-23T21:05:40.116Z,99.90
2023-10-23T21:08:04.224Z,99.90
2023-10-23T21:10:31.881Z,99.90
2023-10-23T21:12:58.676Z,99.90
2023-10-23T21:15:22.563Z,99.90
2023-10-23T21:17:46.671Z,99.90
2023-10-23T21:20:11.779Z,99.90
2023-10-23T21:22:35.812Z,99.90
2023-10-23T21:24:59.594Z,99.90
2023-10-23T21:27:26.005Z,99.90
2023-10-23T21:29:49.880Z,99.90
2023-10-23T21:32:14.164Z,99.90
2023-10-23T21:34:38.042Z,99.90
2023-10-23T21:37:01.956Z,99.90
2023-10-23T21:39:26.239Z,99.90
2023-10-23T21:41:50.743Z,99.90
2023-10-23T21:44:15.961Z,99.90
2023-10-23T21:46:40.077Z,99.90
2023-10-23T21:49:05.210Z,99.90
2023-10-23T21:51:29.241Z,99.90
2023-10-23T21:53:53.826Z,99.90
2023-10-23T21:57:13.178Z,99.90
2023-10-23T21:59:11.331Z,99.90
2023-10-23T22:01:39.186Z,99.90
2023-10-23T22:04:03.949Z,99.90
2023-10-23T22:06:31.305Z,99.90
2023-10-23T22:08:55.592Z,99.90
2023-10-23T22:11:21.224Z,99.90
2023-10-23T22:13:45.389Z,99.90
2023-10-23T22:16:09.391Z,99.90
2023-10-23T22:18:35.819Z,99.90
2023-10-23T22:20:59.755Z,99.90
2023-10-23T22:23:24.077Z,99.90
2023-10-23T22:25:50.829Z,99.90
2023-10-23T22:28:15.604Z,99.90
2023-10-23T22:30:39.739Z,99.90
2023-10-23T22:33:14.452Z,99.90
2023-10-23T22:35:40.547Z,99.90
2023-10-23T22:38:09.537Z,99.90
2023-10-23T22:40:33.697Z,99.90
2023-10-23T22:42:58.678Z,99.90
2023-10-23T22:45:22.491Z,99.90
2023-10-23T22:47:46.507Z,99.90
2023-10-23T22:50:11.645Z,99.90
2023-10-23T22:52:40.479Z,99.90
2023-10-23T22:55:06.311Z,99.90
2023-10-23T22:57:31.694Z,99.90
2023-10-23T22:59:55.971Z,99.90
2023-10-23T23:02:21.773Z,99.90
2023-10-23T23:04:47.121Z,99.90
2023-10-23T23:07:12.831Z,99.90
2023-10-23T23:09:38.988Z,99.90
2023-10-23T23:12:03.250Z,99.90
2023-10-23T23:14:27.710Z,99.90
2023-10-23T23:16:52.395Z,99.90
2023-10-23T23:19:19.484Z,99.90
2023-10-23T23:21:44.852Z,99.90
2023-10-23T23:24:09.890Z,99.90
2023-10-23T23:26:35.900Z,99.90
2023-10-23T23:28:59.776Z,99.90
2023-10-23T23:31:23.772Z,99.90
2023-10-23T23:33:48.052Z,99.90
2023-10-23T23:36:11.885Z,99.90
2023-10-23T23:38:35.774Z,99.90
2023-10-23T23:40:59.748Z,99.90
2023-10-23T23:43:25.648Z,99.90
2023-10-23T23:45:49.537Z,99.90
2023-10-23T23:48:13.411Z,99.90
2023-10-23T23:50:37.200Z,99.90
2023-10-23T23:53:01.284Z,99.90
2023-10-23T23:55:25.298Z,99.90
2023-10-23T23:57:49.131Z,99.90
